Time;durP1;ratioP1;P1;durP2;ratioP2;P2;SDS_P1;SDS_P2;PMS_P1;PMS_P2;Temp;Humidity;BMP_temperature;BMP_pressure;BME280_temperature;BME280_humidity;BME280_pressure;Samples;Min_cycle;Max_cycle;Signal;HPM_P1;HPM_P2
2022/06/30 00:00:36;;;;;;;12.88;4.32;;;;;;;17.18;86.10;97015.56;5029410;28;20042;-66
2022/06/30 00:03:03;;;;;;;8.07;4.03;;;;;;;17.23;85.54;97013.53;5029699;28;20053;-66
2022/06/30 00:05:30;;;;;;;5.07;4.10;;;;;;;17.27;85.24;97017.28;5028848;28;20048;-67
2022/06/30 00:07:56;;;;;;;6.13;3.50;;;;;;;17.16;86.29;97015.84;5030692;28;20745;-67
2022/06/30 00:10:23;;;;;;;6.00;3.85;;;;;;;17.11;86.70;97002.28;5029208;28;20037;-66
2022/06/30 00:12:50;;;;;;;6.63;4.18;;;;;;;17.16;86.51;97008.47;5027590;28;20038;-67
2022/06/30 00:15:16;;;;;;;5.63;3.92;;;;;;;17.18;86.08;97008.19;5029354;28;20516;-66
2022/06/30 00:17:43;;;;;;;7.30;4.35;;;;;;;17.24;86.06;97004.22;5033450;28;20048;-67
2022/06/30 00:20:10;;;;;;;6.05;3.97;;;;;;;17.25;85.69;97010.50;5034872;28;20045;-67
2022/06/30 00:22:37;;;;;;;7.25;3.83;;;;;;;17.27;85.31;97003.59;5028866;28;20038;-67
2022/06/30 00:25:04;;;;;;;6.13;3.85;;;;;;;17.31;84.79;97005.75;5029581;28;20053;-66
2022/06/30 00:27:31;;;;;;;8.25;4.00;;;;;;;17.33;84.49;97004.31;5039638;28;20044;-67
2022/06/30 00:29:57;;;;;;;5.68;3.92;;;;;;;17.33;84.33;97009.78;5048900;28;20095;-66
2022/06/30 00:32:24;;;;;;;6.03;3.75;;;;;;;17.28;84.63;97002.47;5048919;28;20037;-66
2022/06/30 00:34:50;;;;;;;6.15;4.18;;;;;;;17.23;85.05;97008.06;5048606;28;20333;-66
2022/06/30 00:37:17;;;;;;;8.32;3.50;;;;;;;17.08;85.88;97006.44;5048635;28;20048;-67
2022/06/30 00:39:43;;;;;;;6.55;4.25;;;;;;;16.93;86.76;97009.44;5029920;28;20038;-66
2022/06/30 00:42:10;;;;;;;6.60;3.80;;;;;;;16.96;86.19;97004.19;5020169;28;20048;-67
2022/06/30 00:44:36;;;;;;;5.55;3.85;;;;;;;17.05;85.62;97000.75;5009178;28;20219;-67
2022/06/30 00:47:05;;;;;;;4.93;3.92;;;;;;;17.06;85.42;97003.19;5008549;28;20050;-67
2022/06/30 00:49:32;;;;;;;6.22;4.32;;;;;;;16.82;86.78;97006.91;5012927;28;20040;-67
2022/06/30 00:52:01;;;;;;;13.57;4.47;;;;;;;16.73;87.25;97008.72;5028260;28;20045;-66
2022/06/30 00:54:29;;;;;;;6.45;3.85;;;;;;;16.63;87.78;97007.78;5029034;28;20452;-67
2022/06/30 00:56:57;;;;;;;6.70;4.22;;;;;;;16.53;88.28;96997.03;5028264;28;20054;-67
2022/06/30 00:59:26;;;;;;;5.13;3.97;;;;;;;16.46;88.68;96994.69;5028243;28;20049;-67
2022/06/30 01:01:52;;;;;;;5.10;3.85;;;;;;;16.59;88.10;96993.09;5027953;28;20041;-67
2022/06/30 01:04:19;;;;;;;7.43;4.05;;;;;;;16.65;87.45;96988.34;5027025;28;20140;-66
2022/06/30 01:06:47;;;;;;;5.10;3.92;;;;;;;16.63;87.34;96985.13;5028000;28;20048;-66
2022/06/30 01:12:41;;;;;;;5.88;3.80;;;;;;;16.71;86.90;96983.59;5028649;28;20056;-66
2022/06/30 01:14:51;;;;;;;7.90;3.88;;;;;;;16.75;86.29;96985.44;5008183;28;20126;-66
2022/06/30 01:17:17;;;;;;;5.97;3.70;;;;;;;16.68;86.51;96985.00;5009395;28;20042;-67
2022/06/30 01:19:54;;;;;;;10.02;4.03;;;;;;;16.62;86.72;96984.28;5029714;28;20037;-66
2022/06/30 01:22:21;;;;;;;10.25;4.03;;;;;;;16.49;87.66;96990.53;5023275;28;20034;-66
2022/06/30 01:24:48;;;;;;;5.78;4.00;;;;;;;16.46;87.89;96985.66;5017075;28;20053;-66
2022/06/30 01:27:15;;;;;;;7.35;3.67;;;;;;;16.56;87.17;96987.41;5007795;28;20461;-67
2022/06/30 01:29:42;;;;;;;7.70;3.72;;;;;;;16.60;86.95;96982.97;5014714;28;20040;-67
2022/06/30 01:32:08;;;;;;;7.82;4.05;;;;;;;16.62;86.66;96984.28;5027150;28;20053;-66
2022/06/30 01:34:35;;;;;;;8.00;3.95;;;;;;;16.42;87.52;96982.75;5027866;28;20052;-66
2022/06/30 01:37:02;;;;;;;6.78;3.70;;;;;;;16.25;88.56;96984.09;5027588;28;20103;-66
2022/06/30 01:39:29;;;;;;;6.55;4.20;;;;;;;16.24;88.74;96977.03;5027584;28;20328;-66
2022/06/30 01:41:56;;;;;;;5.88;4.30;;;;;;;16.22;88.87;96978.44;5026921;28;20103;-66
2022/06/30 01:44:22;;;;;;;5.78;4.30;;;;;;;16.23;88.81;96972.69;5027445;28;20045;-67
2022/06/30 01:46:50;;;;;;;5.93;4.10;;;;;;;16.20;89.17;96976.00;5025434;28;20045;-67
2022/06/30 01:49:18;;;;;;;8.27;4.65;;;;;;;16.20;89.42;96977.91;5009422;28;20775;-66
2022/06/30 01:51:44;;;;;;;6.50;4.25;;;;;;;16.20;88.92;96978.72;5027114;28;20246;-67
2022/06/30 01:54:11;;;;;;;5.25;3.92;;;;;;;16.25;88.55;96975.91;5026258;28;20721;-66
2022/06/30 01:56:38;;;;;;;6.07;3.88;;;;;;;16.36;87.94;96976.53;5027434;28;20236;-67
2022/06/30 01:59:06;;;;;;;10.90;4.45;;;;;;;16.32;87.87;96971.97;5026482;28;20072;-67
2022/06/30 02:01:34;;;;;;;6.57;3.75;;;;;;;16.19;88.49;96970.84;5027785;28;20390;-67
2022/06/30 02:04:46;;;;;;;6.43;3.90;;;;;;;16.17;89.90;96964.84;5027536;28;20489;-67
2022/06/30 02:06:49;;;;;;;4.93;3.80;;;;;;;16.04;89.09;96970.00;5027106;28;20100;-67
2022/06/30 02:09:15;;;;;;;8.90;4.68;;;;;;;16.02;89.43;96971.38;5027963;28;20046;-66
2022/06/30 02:11:42;;;;;;;7.13;4.30;;;;;;;15.94;90.00;96970.09;5027534;28;20034;-66
2022/06/30 02:14:09;;;;;;;6.78;5.50;;;;;;;15.73;91.74;96964.94;5026528;28;20037;-66
2022/06/30 02:16:35;;;;;;;5.90;4.35;;;;;;;15.61;92.50;96970.84;5026791;28;20044;-66
2022/06/30 02:19:03;;;;;;;8.45;5.03;;;;;;;15.70;92.15;96968.28;5016263;28;20036;-66
2022/06/30 02:21:29;;;;;;;5.88;4.50;;;;;;;15.84;91.31;96966.44;5007303;28;20096;-66
2022/06/30 02:23:56;;;;;;;6.10;4.45;;;;;;;15.85;91.14;96962.59;5007406;28;20048;-66
2022/06/30 02:26:23;;;;;;;6.45;4.60;;;;;;;15.74;91.45;96955.69;5007100;28;20046;-66
2022/06/30 02:28:49;;;;;;;8.02;4.95;;;;;;;15.65;92.12;96966.44;5007677;28;20057;-66
2022/06/30 02:31:16;;;;;;;10.27;5.93;;;;;;;15.53;92.67;96961.44;5020900;28;20046;-66
2022/06/30 02:33:43;;;;;;;5.78;4.57;;;;;;;15.50;93.07;96963.91;5006667;28;20046;-67
2022/06/30 02:36:09;;;;;;;10.45;4.95;;;;;;;15.48;93.54;96964.19;5007093;28;20050;-66
2022/06/30 02:38:36;;;;;;;10.40;5.00;;;;;;;15.50;93.52;96970.19;5014575;28;20050;-66
2022/06/30 02:41:02;;;;;;;8.07;4.82;;;;;;;15.66;93.51;96973.50;5027715;28;20044;-67
2022/06/30 02:43:29;;;;;;;7.72;4.95;;;;;;;15.79;92.54;96968.41;5026498;28;20516;-66
2022/06/30 02:45:55;;;;;;;7.35;4.72;;;;;;;15.79;91.56;96969.25;5026872;28;20041;-66
2022/06/30 02:48:22;;;;;;;7.88;4.70;;;;;;;15.76;91.55;96982.66;5015862;28;20041;-67
2022/06/30 02:50:48;;;;;;;8.45;5.50;;;;;;;15.49;91.97;96979.50;5020640;28;20046;-66
2022/06/30 02:53:15;;;;;;;6.95;4.53;;;;;;;15.34;92.72;96981.28;5026437;28;20052;-66
2022/06/30 02:55:42;;;;;;;8.02;5.15;;;;;;;15.24;93.35;96984.16;5023908;28;20044;-67
2022/06/30 02:58:08;;;;;;;7.80;5.18;;;;;;;15.18;93.97;96977.97;5006145;28;20038;-66
2022/06/30 03:00:35;;;;;;;6.45;4.45;;;;;;;15.24;94.19;96978.72;5006456;28;20046;-66
2022/06/30 03:03:01;;;;;;;6.93;5.00;;;;;;;15.38;94.02;96978.81;5006817;28;20041;-66
2022/06/30 03:05:28;;;;;;;5.95;4.45;;;;;;;15.40;93.42;96973.88;5006701;28;20099;-66
2022/06/30 03:07:54;;;;;;;9.85;5.72;;;;;;;15.28;93.69;96979.75;5008515;28;20556;-67
2022/06/30 03:10:21;;;;;;;10.75;5.95;;;;;;;15.12;93.97;96970.97;5027041;28;20501;-66
2022/06/30 03:12:48;;;;;;;10.85;5.40;;;;;;;14.90;95.87;96974.22;5020257;28;20237;-66
2022/06/30 03:15:14;;;;;;;9.10;5.45;;;;;;;14.88;95.48;96971.78;5009081;28;20050;-66
2022/06/30 03:17:41;;;;;;;6.90;5.38;;;;;;;14.95;95.65;96969.53;5011846;28;20038;-67
2022/06/30 03:20:08;;;;;;;6.82;5.18;;;;;;;15.07;95.32;96962.81;5012429;28;20081;-67
2022/06/30 03:22:34;;;;;;;8.82;5.57;;;;;;;15.13;94.92;96969.84;5036030;28;20053;-66
2022/06/30 03:25:01;;;;;;;8.13;5.38;;;;;;;15.19;94.91;96970.59;5023275;28;20417;-67
2022/06/30 03:27:28;;;;;;;7.15;5.28;;;;;;;15.17;94.30;96964.63;5037110;28;20505;-66
2022/06/30 03:29:54;;;;;;;6.32;5.10;;;;;;;15.17;94.30;96964.63;5020069;28;20374;-67
2022/06/30 03:32:21;;;;;;;6.82;4.90;;;;;;;15.10;94.50;96964.97;5040597;28;20128;-66
2022/06/30 03:34:48;;;;;;;7.75;4.85;;;;;;;15.17;94.80;96972.78;5024178;28;20060;-66
2022/06/30 03:37:15;;;;;;;10.32;5.75;;;;;;;15.22;93.25;96975.44;5042686;28;20057;-66
2022/06/30 03:39:41;;;;;;;8.80;5.10;;;;;;;15.22;93.78;96970.00;5041803;28;20044;-66
2022/06/30 03:42:08;;;;;;;9.35;5.72;;;;;;;15.25;93.98;96965.91;5030949;28;20041;-66
2022/06/30 03:44:35;;;;;;;7.65;4.88;;;;;;;15.24;94.15;96966.97;5024062;28;20095;-66
2022/06/30 03:47:02;;;;;;;9.90;4.75;;;;;;;15.20;93.78;96970.31;5039564;28;20331;-66
2022/06/30 03:49:28;;;;;;;7.95;5.30;;;;;;;15.20;93.85;96962.13;5016847;28;20041;-66
2022/06/30 03:51:55;;;;;;;7.93;4.85;;;;;;;15.13;94.19;96961.66;5042758;28;20029;-67
2022/06/30 03:54:22;;;;;;;8.15;5.30;;;;;;;15.18;93.98;96960.78;5048640;28;20045;-66
2022/06/30 03:56:49;;;;;;;7.78;5.10;;;;;;;15.29;93.44;96965.00;5010430;28;20073;-67
2022/06/30 03:59:16;;;;;;;7.10;4.95;;;;;;;15.35;93.32;96963.03;5009862;28;20042;-67
2022/06/30 04:01:42;;;;;;;6.05;5.05;;;;;;;15.53;92.72;96969.63;5009596;28;20497;-67
2022/06/30 04:04:09;;;;;;;9.88;5.07;;;;;;;15.67;91.81;96968.88;5009958;28;20057;-67
2022/06/30 04:06:36;;;;;;;8.50;4.43;;;;;;;15.69;91.46;96961.19;5009247;28;20046;-67
2022/06/30 04:09:03;;;;;;;7.60;5.30;;;;;;;15.69;91.45;96955.72;5020852;28;20075;-67
2022/06/30 04:11:29;;;;;;;8.43;5.38;;;;;;;15.62;91.57;96960.75;5020612;28;20345;-66
2022/06/30 04:13:56;;;;;;;8.77;5.40;;;;;;;15.62;91.60;96958.81;5009453;28;20038;-67
2022/06/30 04:16:22;;;;;;;7.57;4.45;;;;;;;15.68;91.50;96962.31;5009630;28;20117;-67
2022/06/30 04:18:49;;;;;;;11.32;5.10;;;;;;;15.72;91.50;96960.59;5009212;28;20046;-66
2022/06/30 04:21:16;;;;;;;8.15;5.15;;;;;;;15.70;92.11;96962.84;5009992;28;20050;-67
2022/06/30 04:23:44;;;;;;;8.13;5.38;;;;;;;15.71;91.67;96954.31;5009242;28;20118;-67
2022/06/30 04:26:10;;;;;;;6.93;5.22;;;;;;;15.68;91.93;96957.66;5008588;28;20045;-67
2022/06/30 04:28:37;;;;;;;8.27;5.70;;;;;;;15.67;92.08;96963.41;5008092;28;20050;-66
2022/06/30 04:33:49;;;;;;;8.18;5.30;;;;;;;15.76;91.66;96964.38;5028494;28;20057;-66
2022/06/30 04:36:16;;;;;;;7.95;4.90;;;;;;;15.76;91.87;96960.81;5024515;28;20045;-66
2022/06/30 04:38:43;;;;;;;8.63;4.75;;;;;;;15.78;92.03;96959.44;5016593;28;20091;-66
2022/06/30 04:41:24;;;;;;;12.18;5.20;;;;;;;15.86;91.99;96961.47;5026236;28;20064;-67
2022/06/30 04:43:56;;;;;;;8.98;5.70;;;;;;;15.95;91.20;96956.19;5026914;28;20111;-67
2022/06/30 04:46:23;;;;;;;8.40;5.05;;;;;;;16.03;90.95;96956.63;5028867;28;20052;-67
2022/06/30 04:48:51;;;;;;;7.72;4.90;;;;;;;16.06;90.55;96959.56;5017306;28;20560;-67
2022/06/30 04:51:18;;;;;;;7.10;4.40;;;;;;;16.14;90.57;96960.78;5026822;28;20572;-67
2022/06/30 04:53:44;;;;;;;8.02;5.00;;;;;;;16.25;90.03;96961.44;5028404;28;20429;-67
2022/06/30 04:56:11;;;;;;;8.05;4.85;;;;;;;16.32;90.06;96958.31;5035909;28;20072;-67
2022/06/30 04:58:38;;;;;;;8.75;5.22;;;;;;;16.41;89.82;96953.81;5036006;28;20045;-67
2022/06/30 05:01:05;;;;;;;8.00;5.05;;;;;;;16.54;89.56;96941.25;5028904;28;20512;-67
2022/06/30 05:03:32;;;;;;;8.32;5.05;;;;;;;16.70;89.02;96954.66;5026263;28;20415;-67
2022/06/30 05:05:59;;;;;;;7.60;4.95;;;;;;;16.86;88.62;96946.94;5027541;28;20417;-67
2022/06/30 05:08:26;;;;;;;9.25;4.15;;;;;;;16.99;87.97;96956.28;5017960;28;20091;-67
2022/06/30 05:10:53;;;;;;;11.00;4.68;;;;;;;17.12;87.08;96947.28;5035432;28;20057;-67
2022/06/30 05:13:26;;;;;;;12.30;5.95;;;;;;;17.27;86.55;96956.28;5016108;28;20115;-67
2022/06/30 05:15:53;;;;;;;9.98;5.05;;;;;;;17.37;86.38;96949.78;5028380;28;20251;-67
2022/06/30 05:18:20;;;;;;;7.88;4.38;;;;;;;17.51;86.18;96944.28;5027787;28;20240;-67
2022/06/30 05:20:47;;;;;;;8.65;4.35;;;;;;;17.60;86.21;96939.69;5028520;28;20056;-66
2022/06/30 05:23:13;;;;;;;9.63;3.95;;;;;;;17.76;85.23;96942.88;5028102;28;20075;-67
2022/06/30 05:28:25;;;;;;;6.55;4.00;;;;;;;17.94;84.04;96938.34;5008973;28;20057;-67
2022/06/30 05:30:52;;;;;;;7.35;3.90;;;;;;;18.05;83.62;96936.16;5024329;28;20082;-67
2022/06/30 05:33:20;;;;;;;7.47;3.97;;;;;;;18.13;83.24;96939.31;5027927;28;20493;-67
2022/06/30 05:35:48;;;;;;;7.05;4.30;;;;;;;18.23;82.50;96938.22;5028171;28;20037;-67
2022/06/30 05:38:16;;;;;;;7.95;4.22;;;;;;;18.35;81.68;96938.47;5020863;28;20046;-67
2022/06/30 05:40:45;;;;;;;5.88;3.80;;;;;;;18.43;81.68;96936.91;5027990;28;20041;-67
2022/06/30 05:43:16;;;;;;;7.45;3.75;;;;;;;18.53;81.27;96936.63;5022153;28;20129;-67
2022/06/30 05:45:50;;;;;;;6.40;3.80;;;;;;;18.68;80.64;96938.16;5007745;28;20045;-67
2022/06/30 05:48:18;;;;;;;6.10;3.53;;;;;;;18.82;79.82;96946.28;5007099;28;20754;-67
2022/06/30 05:50:45;;;;;;;5.80;3.58;;;;;;;18.94;79.53;96940.19;5021137;28;20060;-67
2022/06/30 05:53:11;;;;;;;7.38;4.78;;;;;;;19.12;78.90;96934.78;5026957;28;20087;-66
2022/06/30 05:55:38;;;;;;;6.60;4.38;;;;;;;19.28;78.13;96926.91;5026845;28;20052;-67
2022/06/30 05:58:06;;;;;;;6.57;3.67;;;;;;;19.46;78.04;96932.44;5027365;28;20432;-67
2022/06/30 06:00:33;;;;;;;6.25;3.45;;;;;;;19.60;78.42;96924.03;5031875;28;20053;-67
2022/06/30 06:03:00;;;;;;;7.97;4.00;;;;;;;19.68;78.16;96923.22;5040722;28;20033;-67
2022/06/30 06:05:27;;;;;;;7.72;3.80;;;;;;;19.85;78.02;96927.09;5044309;28;20132;-67
2022/06/30 06:07:54;;;;;;;4.93;3.40;;;;;;;19.86;76.77;96928.69;5031798;28;20508;-67
2022/06/30 06:10:21;;;;;;;7.95;3.60;;;;;;;20.00;75.30;96928.56;5025904;28;20037;-67
2022/06/30 06:12:48;;;;;;;6.47;3.33;;;;;;;20.18;75.08;96934.03;5041814;28;20041;-67
2022/06/30 06:15:15;;;;;;;7.45;3.78;;;;;;;20.40;74.22;96933.03;5027574;28;20132;-67
2022/06/30 06:17:48;;;;;;;6.43;3.22;;;;;;;20.49;74.23;96919.25;5026741;28;20136;-67
2022/06/30 06:20:17;;;;;;;4.53;3.30;;;;;;;20.56;73.66;96927.78;5019931;28;20050;-67
2022/06/30 06:22:44;;;;;;;5.22;2.90;;;;;;;20.57;73.36;96928.59;5007541;28;20104;-67
2022/06/30 06:25:12;;;;;;;7.35;3.92;;;;;;;20.88;72.36;96928.34;5006756;28;20525;-67
2022/06/30 06:27:40;;;;;;;8.50;3.53;;;;;;;21.07;71.50;96931.84;5007604;28;20046;-67
2022/06/30 06:30:08;;;;;;;4.35;2.97;;;;;;;21.11;71.11;96933.56;5017113;28;20432;-67
2022/06/30 06:32:36;;;;;;;8.68;3.22;;;;;;;21.32;71.00;96935.56;5015747;28;20053;-67
2022/06/30 06:35:05;;;;;;;6.43;3.50;;;;;;;21.50;70.13;96932.69;5018938;28;20042;-67
2022/06/30 06:37:37;;;;;;;4.93;3.10;;;;;;;21.63;69.79;96933.56;5017070;28;20403;-67
2022/06/30 06:40:05;;;;;;;4.20;2.85;;;;;;;21.65;70.19;96931.28;5026673;28;20323;-67
2022/06/30 06:42:31;;;;;;;4.90;3.10;;;;;;;21.75;70.74;96922.66;5026855;28;20142;-67
2022/06/30 06:44:58;;;;;;;7.40;3.53;;;;;;;21.88;69.55;96934.53;5019249;28;20052;-67
2022/06/30 06:47:25;;;;;;;6.10;3.55;;;;;;;22.02;68.02;96928.72;5006987;28;20540;-67
2022/06/30 06:49:51;;;;;;;6.78;3.40;;;;;;;22.17;67.33;96943.00;5013388;28;20416;-67
2022/06/30 06:52:18;;;;;;;6.00;3.42;;;;;;;22.16;67.17;96933.97;5026706;28;20046;-67
2022/06/30 06:54:44;;;;;;;5.55;2.88;;;;;;;22.30;66.97;96925.38;5024250;28;20044;-67
2022/06/30 06:57:11;;;;;;;5.30;3.30;;;;;;;22.27;65.80;96933.53;5007393;28;20041;-67
2022/06/30 06:59:38;;;;;;;4.72;3.38;;;;;;;22.45;66.68;96923.13;5006981;28;20046;-67
2022/06/30 07:02:06;;;;;;;4.78;3.00;;;;;;;22.52;65.74;96931.63;5006587;28;20045;-67
2022/06/30 07:04:32;;;;;;;4.57;2.90;;;;;;;22.53;65.66;96932.44;5009865;28;20508;-68
2022/06/30 07:06:59;;;;;;;5.30;3.70;;;;;;;22.68;66.27;96928.22;5010265;28;20046;-67
2022/06/30 07:09:25;;;;;;;7.43;3.22;;;;;;;22.67;63.92;96927.41;5024987;28;20053;-67
2022/06/30 07:11:52;;;;;;;5.18;3.17;;;;;;;22.72;64.79;96929.16;5030524;28;20401;-66
2022/06/30 07:14:19;;;;;;;7.97;3.92;;;;;;;23.03;64.93;96927.00;5030807;28;20044;-66
2022/06/30 07:16:46;;;;;;;5.80;3.83;;;;;;;23.13;63.78;96932.88;5029961;28;20043;-66
2022/06/30 07:19:13;;;;;;;6.20;3.50;;;;;;;23.04;63.44;96932.19;5017680;28;20330;-66
2022/06/30 07:21:43;;;;;;;7.32;3.40;;;;;;;23.04;64.96;96928.59;5010858;28;20145;-65
2022/06/30 07:24:09;;;;;;;7.22;3.85;;;;;;;23.10;63.87;96936.31;5027281;28;20060;-65
2022/06/30 07:26:36;;;;;;;6.63;3.80;;;;;;;23.13;64.91;96926.53;5029788;28;20053;-65
2022/06/30 07:29:02;;;;;;;7.75;3.78;;;;;;;23.24;63.92;96930.44;5029961;28;20429;-66
2022/06/30 07:31:29;;;;;;;5.07;3.17;;;;;;;23.40;63.75;96940.78;5030132;28;20045;-66
2022/06/30 07:33:56;;;;;;;6.97;3.20;;;;;;;23.53;63.02;96927.75;5018188;28;20579;-66
2022/06/30 07:36:23;;;;;;;6.68;3.83;;;;;;;23.55;64.21;96932.94;5010412;28;20516;-66
2022/06/30 07:38:49;;;;;;;9.10;4.00;;;;;;;23.62;61.96;96922.13;5019264;28;20037;-67
2022/06/30 07:41:17;;;;;;;5.28;3.38;;;;;;;23.63;62.87;96918.97;5029010;28;20049;-67
2022/06/30 07:43:43;;;;;;;8.07;3.50;;;;;;;23.80;63.23;96917.09;5035607;28;20044;-66
2022/06/30 07:46:11;;;;;;;5.90;3.85;;;;;;;24.07;62.53;96919.41;5031080;28;20124;-67
2022/06/30 07:48:38;;;;;;;7.80;3.65;;;;;;;24.06;62.39;96907.53;5036551;28;20046;-66
2022/06/30 07:51:05;;;;;;;6.55;3.58;;;;;;;24.26;61.77;96908.53;5029521;28;20361;-67
2022/06/30 07:53:31;;;;;;;13.70;3.85;;;;;;;24.24;60.94;96905.28;5033656;28;20519;-66
2022/06/30 07:55:58;;;;;;;9.48;4.78;;;;;;;24.25;61.34;96895.84;5038066;28;20053;-66
2022/06/30 07:58:25;;;;;;;5.93;3.55;;;;;;;24.39;60.88;96902.91;5024239;28;20060;-67
2022/06/30 08:00:51;;;;;;;8.27;3.28;;;;;;;24.35;60.87;96907.53;5017282;28;20500;-66
2022/06/30 08:03:18;;;;;;;8.57;4.13;;;;;;;24.51;60.89;96915.88;5043711;28;20063;-67
2022/06/30 08:05:45;;;;;;;9.05;4.18;;;;;;;24.47;60.32;96915.75;5036793;28;20072;-66
2022/06/30 08:08:11;;;;;;;11.02;3.88;;;;;;;24.49;60.58;96910.69;5028051;28;20503;-66
2022/06/30 08:10:38;;;;;;;6.57;3.90;;;;;;;24.50;60.03;96909.53;5029646;28;20053;-66
2022/06/30 08:13:04;;;;;;;6.00;3.90;;;;;;;24.56;59.68;96912.84;5029566;28;20045;-66
2022/06/30 08:15:31;;;;;;;8.10;3.67;;;;;;;24.53;59.63;96911.59;5027979;28;20479;-67
2022/06/30 08:18:02;;;;;;;6.10;3.95;;;;;;;24.70;60.13;96915.16;5030134;28;20049;-67
2022/06/30 08:20:29;;;;;;;7.38;3.90;;;;;;;24.78;59.33;96919.72;5029532;28;20045;-66
2022/06/30 08:22:56;;;;;;;5.70;3.40;;;;;;;24.88;59.07;96921.16;5010469;28;20044;-67
2022/06/30 08:25:23;;;;;;;5.40;3.50;;;;;;;24.87;58.95;96921.53;5009749;28;20046;-67
2022/06/30 08:27:50;;;;;;;7.05;3.78;;;;;;;24.85;58.41;96919.13;5009236;28;20052;-66
2022/06/30 08:30:17;;;;;;;15.00;3.90;;;;;;;24.98;59.58;96922.59;5019039;28;20048;-66
2022/06/30 08:32:44;;;;;;;6.32;3.70;;;;;;;24.96;58.69;96916.63;5037055;28;20416;-66
2022/06/30 08:35:11;;;;;;;7.30;4.40;;;;;;;25.15;58.02;96912.28;5027591;28;20268;-66
2022/06/30 08:37:38;;;;;;;8.00;4.10;;;;;;;25.26;58.26;96907.81;5026171;28;20052;-66
2022/06/30 08:42:56;;;;;;;5.97;3.85;;;;;;;25.31;57.53;96901.97;5013972;28;20048;-66
2022/06/30 08:45:24;;;;;;;6.43;4.07;;;;;;;25.46;57.39;96892.00;5026963;28;20060;-66
2022/06/30 08:47:51;;;;;;;9.07;4.50;;;;;;;25.46;56.54;96896.75;5041758;28;20045;-66
2022/06/30 08:50:17;;;;;;;5.65;3.78;;;;;;;25.59;55.62;96897.47;5029885;28;20057;-67
2022/06/30 08:52:47;;;;;;;7.80;3.90;;;;;;;25.70;56.40;96894.91;5032700;28;20559;-66
2022/06/30 08:55:15;;;;;;;12.15;4.53;;;;;;;25.70;55.74;96894.91;5027514;28;20045;-66
2022/06/30 08:57:45;;;;;;;9.35;4.10;;;;;;;25.82;54.97;96886.44;5038625;28;20052;-66
2022/06/30 09:00:15;;;;;;;10.07;4.40;;;;;;;25.96;55.01;96885.94;5041449;28;20508;-66
2022/06/30 09:02:42;;;;;;;8.38;4.03;;;;;;;26.23;54.85;96888.00;5037123;28;20707;-66
2022/06/30 09:05:09;;;;;;;5.57;3.95;;;;;;;26.34;53.39;96885.44;5031630;28;20045;-66
2022/06/30 09:07:37;;;;;;;9.00;4.03;;;;;;;26.23;52.53;96883.25;5025246;28;20057;-66
2022/06/30 09:10:05;;;;;;;7.65;3.67;;;;;;;26.31;53.05;96892.53;5029717;28;20038;-66
2022/06/30 09:12:32;;;;;;;11.68;4.20;;;;;;;26.52;53.14;96883.00;5046371;28;20040;-66
2022/06/30 09:15:00;;;;;;;7.65;3.92;;;;;;;26.28;52.11;96890.53;5033324;28;20045;-66
2022/06/30 09:17:29;;;;;;;5.75;3.95;;;;;;;26.20;51.73;96894.31;5045912;28;20045;-66
2022/06/30 09:20:01;;;;;;;6.78;4.03;;;;;;;26.15;52.34;96905.69;5042588;28;20567;-67
2022/06/30 09:22:30;;;;;;;10.35;4.18;;;;;;;26.15;52.78;96894.59;5017301;28;20041;-67
2022/06/30 09:25:01;;;;;;;5.53;3.75;;;;;;;26.21;52.34;96896.69;5045062;28;20488;-67
2022/06/30 09:27:30;;;;;;;8.45;4.03;;;;;;;26.33;52.07;96879.13;5045440;28;20504;-67
2022/06/30 09:30:03;;;;;;;7.95;4.25;;;;;;;26.22;52.47;96881.66;5026216;28;20041;-66
2022/06/30 09:32:46;;;;;;;13.90;4.55;;;;;;;26.15;52.31;96875.16;5026039;28;20050;-67
2022/06/30 09:35:13;;;;;;;10.18;4.43;;;;;;;26.04;52.63;96878.53;5024336;28;20056;-66
2022/06/30 09:37:40;;;;;;;6.65;3.72;;;;;;;25.77;53.14;96878.44;5039027;28;20049;-66
2022/06/30 09:40:08;;;;;;;6.75;4.03;;;;;;;25.82;53.73;96883.69;5035919;28;20056;-67
2022/06/30 09:42:46;;;;;;;8.02;3.85;;;;;;;25.65;52.69;96881.34;5027082;28;20165;-66
2022/06/30 09:45:37;;;;;;;8.00;3.90;;;;;;;25.83;51.93;96878.91;5027331;28;20587;-66
2022/06/30 09:48:05;;;;;;;6.18;3.28;;;;;;;26.12;51.37;96873.16;5045127;28;20045;-67
2022/06/30 09:50:32;;;;;;;9.15;3.70;;;;;;;26.25;50.94;96866.25;5035537;28;20044;-67
2022/06/30 09:53:05;;;;;;;7.03;3.38;;;;;;;26.31;50.46;96866.78;5033088;28;20045;-67
2022/06/30 09:55:47;;;;;;;6.20;3.47;;;;;;;26.48;49.82;96873.81;5045178;28;20041;-67
2022/06/30 09:58:17;;;;;;;4.63;3.00;;;;;;;26.40;48.94;96867.34;5040143;28;20053;-67
2022/06/30 10:00:49;;;;;;;5.70;2.70;;;;;;;26.53;47.19;96864.38;5025249;28;20037;-67
2022/06/30 10:03:18;;;;;;;7.63;3.33;;;;;;;26.65;46.43;96857.81;5021172;28;20045;-67
2022/06/30 10:05:47;;;;;;;6.18;3.00;;;;;;;26.84;44.67;96854.97;5025894;28;20568;-66
2022/06/30 10:08:15;;;;;;;6.13;2.83;;;;;;;27.11;44.52;96845.84;5021581;28;20069;-66
2022/06/30 10:10:43;;;;;;;6.63;2.63;;;;;;;27.42;45.23;96845.88;5025637;28;20041;-67
2022/06/30 10:13:15;;;;;;;6.82;2.90;;;;;;;27.42;44.25;96854.22;5031672;28;20053;-67
2022/06/30 10:15:51;;;;;;;9.35;3.88;;;;;;;27.58;45.19;96846.47;5045143;28;20513;-66
2022/06/30 10:18:18;;;;;;;7.35;2.65;;;;;;;27.57;43.64;96849.63;5037839;28;20041;-67
2022/06/30 10:20:45;;;;;;;5.40;2.50;;;;;;;27.76;41.47;96843.94;5021061;28;20519;-67
2022/06/30 10:23:13;;;;;;;5.75;2.60;;;;;;;27.84;40.86;96841.22;5027119;28;20045;-67
2022/06/30 10:25:40;;;;;;;5.15;2.20;;;;;;;27.62;41.90;96844.56;5031660;28;20583;-66
2022/06/30 10:28:08;;;;;;;5.05;2.22;;;;;;;27.29;41.63;96848.06;5036085;28;20056;-66
2022/06/30 10:30:50;;;;;;;7.00;2.60;;;;;;;27.48;41.13;96838.78;5043654;28;20041;-67
2022/06/30 10:33:36;;;;;;;7.30;2.85;;;;;;;27.65;41.10;96835.44;5044786;28;20504;-67
2022/06/30 10:36:25;;;;;;;9.05;3.50;;;;;;;27.70;41.01;96836.28;5013310;28;20394;-66
2022/06/30 10:39:13;;;;;;;7.22;2.50;;;;;;;27.88;40.70;96845.66;5021187;28;20505;-66
2022/06/30 10:41:44;;;;;;;3.75;2.28;;;;;;;27.94;40.45;96840.56;5024761;28;20041;-67
2022/06/30 10:44:12;;;;;;;9.07;3.03;;;;;;;28.03;40.40;96834.69;5011494;28;20038;-66
2022/06/30 10:47:02;;;;;;;5.07;2.40;;;;;;;27.31;41.07;96829.06;5011375;28;20493;-66
2022/06/30 10:49:51;;;;;;;6.63;2.15;;;;;;;27.44;41.57;96818.47;5024520;28;20500;-67
2022/06/30 10:52:19;;;;;;;5.13;2.47;;;;;;;27.53;41.50;96821.78;5035656;28;20060;-67
2022/06/30 10:54:46;;;;;;;4.72;2.42;;;;;;;27.73;39.64;96825.22;5028311;28;20436;-66
2022/06/30 10:57:12;;;;;;;4.32;2.05;;;;;;;27.98;38.69;96815.56;5026605;28;20053;-67
2022/06/30 10:59:42;;;;;;;6.85;2.25;;;;;;;28.36;39.52;96823.88;5031208;28;20052;-67
2022/06/30 11:02:18;;;;;;;5.32;2.38;;;;;;;28.07;38.61;96818.81;5036134;28;20410;-67
2022/06/30 11:04:50;;;;;;;6.47;2.80;;;;;;;28.21;38.99;96820.13;5044241;28;20041;-66
2022/06/30 11:07:24;;;;;;;5.05;2.25;;;;;;;28.23;39.14;96826.13;5035906;28;20140;-66
2022/06/30 11:09:51;;;;;;;8.10;2.38;;;;;;;28.31;38.17;96819.47;5040434;28;20045;-67
2022/06/30 11:12:24;;;;;;;6.13;2.17;;;;;;;28.52;38.67;96829.22;5046113;28;20072;-67
2022/06/30 11:14:54;;;;;;;3.72;2.05;;;;;;;28.74;37.81;96821.78;5038215;28;20045;-67
2022/06/30 11:17:23;;;;;;;5.70;2.30;;;;;;;28.63;37.90;96829.28;5027870;28;20467;-67
2022/06/30 11:20:00;;;;;;;4.38;2.15;;;;;;;28.61;36.73;96823.28;5011389;28;20049;-67
2022/06/30 11:22:28;;;;;;;5.20;2.25;;;;;;;28.51;38.70;96810.88;5010850;28;20042;-66
2022/06/30 11:24:58;;;;;;;4.78;2.30;;;;;;;28.28;37.90;96806.31;5010267;28;20041;-67
2022/06/30 11:27:28;;;;;;;7.13;2.55;;;;;;;28.33;37.88;96803.19;5009876;28;20096;-67
2022/06/30 11:30:04;;;;;;;6.53;2.20;;;;;;;28.34;37.43;96802.00;5018847;28;20056;-66
2022/06/30 11:32:31;;;;;;;4.55;2.53;;;;;;;28.37;37.64;96800.44;5030552;28;20052;-67
2022/06/30 11:34:58;;;;;;;5.43;2.00;;;;;;;28.63;38.53;96801.44;5030159;28;20049;-67
2022/06/30 11:37:28;;;;;;;5.35;2.45;;;;;;;29.14;36.89;96805.38;5017826;28;20050;-66
2022/06/30 11:40:04;;;;;;;6.32;2.50;;;;;;;29.12;36.94;96799.41;5028806;28;20495;-67
2022/06/30 11:42:31;;;;;;;6.97;2.25;;;;;;;29.31;36.31;96803.06;5029736;28;20252;-67
2022/06/30 11:44:58;;;;;;;7.53;2.40;;;;;;;29.62;34.78;96792.44;5030382;28;20394;-66
2022/06/30 11:47:28;;;;;;;4.45;2.30;;;;;;;29.46;35.07;96790.78;5028467;28;20053;-67